Time;durP1;ratioP1;P1;durP2;ratioP2;P2;SDS_P1;SDS_P2;PMS_P1;PMS_P2;Temp;Humidity;BMP_temperature;BMP_pressure;BME280_temperature;BME280_humidity;BME280_pressure;Samples;Min_cycle;Max_cycle;Signal;HPM_P1;HPM_P2
2022/09/03 00:00:22;;;;;;;;;;;;;;;10.70;100.00;99090.13;6276495;22;19911;-84
2022/09/03 00:03:07;;;;;;;;;;;;;;;10.80;100.00;99097.59;6274851;22;19950;-83
2022/09/03 00:05:51;;;;;;;;;;;;;;;10.85;100.00;99092.88;6248946;22;19915;-83
2022/09/03 00:08:20;;;;;;;;;;;;;;;10.99;100.00;99095.66;6276160;22;19911;-86
2022/09/03 00:10:50;;;;;;;;;;;;;;;10.88;100.00;99093.59;6274379;22;19986;-85
2022/09/03 00:13:22;;;;;;;;;;;;;;;10.86;100.00;99094.59;6275096;22;20287;-85
2022/09/03 00:15:48;;;;;;;;;;;;;;;10.99;100.00;99098.31;6273386;22;20235;-85
2022/09/03 00:18:19;;;;;;;;;;;;;;;10.99;100.00;99090.34;6276275;22;19966;-86
2022/09/03 00:20:49;;;;;;;;;;;;;;;10.77;100.00;99095.09;6276124;22;20328;-84
2022/09/03 00:23:19;;;;;;;;;;;;;;;10.92;100.00;99101.38;6275345;22;19957;-87
2022/09/03 00:26:14;;;;;;;;;;;;;;;11.04;100.00;99098.91;6274078;22;19915;-85
2022/09/03 00:28:39;;;;;;;;;;;;;;;10.95;100.00;99094.09;6223389;22;20461;-84
2022/09/03 00:31:11;;;;;;;;;;;;;;;10.88;100.00;99106.84;6274681;22;19990;-84
2022/09/03 00:33:38;;;;;;;;;;;;;;;11.12;100.00;99111.72;6274765;22;19934;-84
2022/09/03 00:36:09;;;;;;;;;;;;;;;11.15;100.00;99108.88;6276094;22;19911;-85
2022/09/03 00:38:36;;;;;;;;;;;;;;;10.98;100.00;99109.00;6275677;22;19915;-85
2022/09/03 00:41:16;;;;;;;;;;;;;;;10.95;100.00;99104.72;6276409;22;19907;-84
2022/09/03 00:43:45;;;;;;;;;;;;;;;11.14;100.00;99103.69;6247320;22;19915;-84
2022/09/03 00:46:18;;;;;;;;;;;;;;;11.04;100.00;99105.97;6273199;22;19941;-92
2022/09/03 00:49:02;;;;;;;;;;;;;;;10.95;100.00;99104.72;6273842;22;20249;-83
2022/09/03 00:51:34;;;;;;;;;;;;;;;10.91;100.00;99108.44;6275322;22;19911;-86
2022/09/03 00:54:24;;;;;;;;;;;;;;;11.13;100.00;99112.56;6275613;22;19911;-83
2022/09/03 00:57:15;;;;;;;;;;;;;;;11.03;100.00;99110.44;6275761;22;19922;-86
2022/09/03 00:59:59;;;;;;;;;;;;;;;10.96;100.00;99110.84;6268604;22;19982;-85
2022/09/03 01:02:45;;;;;;;;;;;;;;;10.86;100.00;99107.84;6271663;22;19911;-85
2022/09/03 03:31:12;;;;;;;;;;;;;;;11.03;100.00;99102.47;6200108;22;19945;-80
2022/09/03 03:33:37;;;;;;;;;;;;;;;10.90;100.00;99112.91;6275362;22;19973;-81
2022/09/03 03:36:07;;;;;;;;;;;;;;;10.85;100.00;99112.31;6247798;22;19915;-82
2022/09/03 03:38:33;;;;;;;;;;;;;;;10.96;100.00;99105.53;6275299;22;20327;-82
2022/09/03 03:40:58;;;;;;;;;;;;;;;10.96;100.00;99108.19;6248346;22;19911;-81
2022/09/03 03:43:23;;;;;;;;;;;;;;;10.77;100.00;99111.00;6274240;22;19949;-81
2022/09/03 03:45:58;;;;;;;;;;;;;;;10.91;100.00;99111.09;6273954;22;19981;-82
2022/09/03 03:48:24;;;;;;;;;;;;;;;10.97;100.00;99107.28;6276807;22;20357;-82
2022/09/03 03:50:49;;;;;;;;;;;;;;;10.89;100.00;99107.69;6250264;22;19915;-81
2022/09/03 03:53:14;;;;;;;;;;;;;;;10.98;100.00;99116.94;6249846;22;20235;-82
2022/09/03 03:55:40;;;;;;;;;;;;;;;11.12;100.00;99113.50;6277437;22;20342;-84
2022/09/03 03:58:06;;;;;;;;;;;;;;;10.99;100.00;99108.91;6277017;22;20238;-81
2022/09/03 04:00:36;;;;;;;;;;;;;;;10.87;100.00;99112.22;6275352;22;19989;-80
2022/09/03 04:03:02;;;;;;;;;;;;;;;11.05;100.00;99110.34;6276668;22;19919;-81
2022/09/03 04:05:27;;;;;;;;;;;;;;;10.96;100.00;99119.69;6277002;22;19933;-80
2022/09/03 04:07:52;;;;;;;;;;;;;;;10.87;100.00;99115.72;6277275;22;19919;-79
2022/09/03 04:10:17;;;;;;;;;;;;;;;11.15;100.00;99111.53;6249800;22;20247;-79
2022/09/03 04:12:43;;;;;;;;;;;;;;;11.13;100.00;99112.56;6277206;22;19915;-79
2022/09/03 04:15:08;;;;;;;;;;;;;;;11.04;100.00;99117.47;6275104;22;20001;-79
2022/09/03 04:17:33;;;;;;;;;;;;;;;11.05;100.00;99119.16;6277110;22;19911;-79
2022/09/03 04:19:59;;;;;;;;;;;;;;;11.03;100.00;99113.09;6277181;22;19935;-83
2022/09/03 04:22:24;;;;;;;;;;;;;;;10.97;100.00;99117.88;6276691;22;19911;-81
2022/09/03 04:24:49;;;;;;;;;;;;;;;11.11;100.00;99107.34;6276837;22;19911;-80
2022/09/03 04:27:14;;;;;;;;;;;;;;;11.13;100.00;99109.94;6276590;22;19922;-79
2022/09/03 04:29:40;;;;;;;;;;;;;;;10.91;100.00;99113.75;6275285;22;19918;-80
2022/09/03 04:34:49;;;;;;;;;;;;;;;11.12;100.00;99102.91;6276609;22;19918;-80
2022/09/03 04:37:15;;;;;;;;;;;;;;;11.03;100.00;99120.19;6276563;22;19919;-80
2022/09/03 04:39:40;;;;;;;;;;;;;;;10.91;100.00;99108.44;6277060;22;19918;-80
2022/09/03 04:42:06;;;;;;;;;;;;;;;11.06;100.00;99112.06;6276491;22;19920;-80
2022/09/03 04:44:31;;;;;;;;;;;;;;;11.03;100.00;99112.25;6273565;22;19915;-79
2022/09/03 04:46:56;;;;;;;;;;;;;;;10.95;100.00;99117.97;6276398;22;19912;-79
2022/09/03 04:49:23;;;;;;;;;;;;;;;11.17;100.00;99119.41;6274969;22;19922;-79
2022/09/03 04:51:49;;;;;;;;;;;;;;;11.11;100.00;99117.13;6276817;22;19911;-80
2022/09/03 04:54:14;;;;;;;;;;;;;;;11.01;100.00;99130.00;6276358;22;20036;-80
2022/09/03 07:42:39;;;;;;;;;;;;;;;11.12;100.00;99151.50;6221194;22;20388;-91
2022/09/03 07:47:45;;;;;;;;;;;;;;;10.88;100.00;99145.72;6281198;22;19919;-94
2022/09/03 07:50:10;;;;;;;;;;;;;;;11.05;100.00;99152.75;6273483;22;19937;-93
2022/09/03 07:52:35;;;;;;;;;;;;;;;11.08;100.00;99152.59;6272982;22;19911;-89
2022/09/03 07:55:03;;;;;;;;;;;;;;;10.88;100.00;99151.91;6298854;22;19918;-94
2022/09/03 08:00:32;;;;;;;;;;;;;;;11.02;100.00;99152.94;6229874;22;19934;-93
2022/09/03 08:03:07;;;;;;;;;;;;;;;11.09;100.00;99160.47;6300678;22;19979;-90
2022/09/03 08:05:40;;;;;;;;;;;;;;;10.95;100.00;99152.41;6223590;22;19911;-89
2022/09/03 08:08:07;;;;;;;;;;;;;;;10.96;100.00;99159.44;6299270;22;19938;-90
2022/09/03 08:10:35;;;;;;;;;;;;;;;11.02;100.00;99158.22;6295807;22;19991;-93
2022/09/03 08:13:00;;;;;;;;;;;;;;;11.12;100.00;99158.56;6293383;22;19939;-94
2022/09/03 08:15:26;;;;;;;;;;;;;;;10.96;100.00;99166.50;6288983;22;19918;-96
2022/09/03 08:17:51;;;;;;;;;;;;;;;11.05;100.00;99164.22;6283589;22;19961;-93
2022/09/03 08:20:17;;;;;;;;;;;;;;;11.22;100.00;99168.59;6283566;22;19914;-95
2022/09/03 08:22:42;;;;;;;;;;;;;;;11.14;100.00;99172.63;6285080;22;19911;-95
2022/09/03 08:25:10;;;;;;;;;;;;;;;11.06;100.00;99168.59;6280240;22;19911;-94
2022/09/03 08:27:35;;;;;;;;;;;;;;;11.22;100.00;99173.91;6262855;23;19914;-96
2022/09/03 08:30:02;;;;;;;;;;;;;;;11.18;100.00;99169.69;6237877;23;19966;-93
2022/09/03 08:32:47;;;;;;;;;;;;;;;11.03;100.00;99175.88;6266372;23;19935;-94
2022/09/03 08:35:13;;;;;;;;;;;;;;;11.00;100.00;99174.22;6217518;23;19911;-91
2022/09/03 08:37:41;;;;;;;;;;;;;;;11.30;100.00;99177.94;6263530;23;19911;-92
2022/09/03 08:40:08;;;;;;;;;;;;;;;11.11;100.00;99175.44;6261468;23;19912;-91
2022/09/03 08:42:51;;;;;;;;;;;;;;;10.95;100.00;99180.72;6254721;23;19916;-93
2022/09/03 08:48:00;;;;;;;;;;;;;;;11.24;100.00;99181.78;6280333;22;20282;-91
2022/09/03 08:50:27;;;;;;;;;;;;;;;11.09;100.00;99181.69;6260913;22;20141;-95
2022/09/03 08:52:59;;;;;;;;;;;;;;;11.01;100.00;99183.91;6258749;22;19907;-91
2022/09/03 08:55:32;;;;;;;;;;;;;;;11.23;100.00;99186.22;6283886;22;19919;-95
2022/09/03 08:58:05;;;;;;;;;;;;;;;11.23;100.00;99183.59;6283343;22;19915;-95
2022/09/03 09:00:40;;;;;;;;;;;;;;;11.16;100.00;99184.00;6254836;22;19915;-95
2022/09/03 09:03:05;;;;;;;;;;;;;;;11.22;100.00;99183.66;6281574;22;19911;-94
2022/09/03 09:05:54;;;;;;;;;;;;;;;11.38;100.00;99189.81;6281566;22;19922;-92
2022/09/03 09:08:34;;;;;;;;;;;;;;;11.28;100.00;99199.25;6225523;22;19948;-93
2022/09/03 09:11:18;;;;;;;;;;;;;;;11.16;100.00;99194.59;6254393;22;19912;-93
2022/09/03 09:13:46;;;;;;;;;;;;;;;11.45;100.00;99199.16;6285947;22;19915;-95
2022/09/03 09:16:21;;;;;;;;;;;;;;;11.42;100.00;99204.63;6282382;22;19931;-92
2022/09/03 09:18:46;;;;;;;;;;;;;;;11.34;100.00;99206.84;6282984;22;19960;-90
2022/09/03 09:21:20;;;;;;;;;;;;;;;11.35;100.00;99203.25;6284881;22;19907;-95
2022/09/03 09:23:49;;;;;;;;;;;;;;;11.53;100.00;99197.88;6281044;22;19912;-96
2022/09/03 09:26:19;;;;;;;;;;;;;;;11.45;100.00;99201.81;6285412;22;19911;-95
2022/09/03 09:28:45;;;;;;;;;;;;;;;11.43;100.00;99205.50;6287466;22;19935;-91
2022/09/03 09:31:14;;;;;;;;;;;;;;;11.59;100.00;99205.47;6258207;22;19914;-94
2022/09/03 09:33:39;;;;;;;;;;;;;;;11.42;100.00;99204.63;6281722;22;19919;-96
2022/09/03 09:36:17;;;;;;;;;;;;;;;;;;;;;
2022/09/03 09:38:47;;;;;;;;;;;;;;;11.60;100.00;99196.59;6287959;22;19934;-91
2022/09/03 09:41:19;;;;;;;;;;;;;;;11.53;100.00;99200.53;6265626;22;19926;-93
2022/09/03 09:43:55;;;;;;;;;;;;;;;11.54;100.00;99202.25;6260098;22;19911;-93
2022/09/03 09:46:30;;;;;;;;;;;;;;;11.65;100.00;99202.50;6272096;22;19919;-91
2022/09/03 09:49:16;;;;;;;;;;;;;;;11.68;100.00;99197.00;6289608;22;19945;-96
2022/09/03 09:51:55;;;;;;;;;;;;;;;11.57;100.00;99202.91;6294869;22;19930;-92
2022/09/03 09:54:45;;;;;;;;;;;;;;;11.40;100.00;99201.19;6276313;22;19967;-94
2022/09/03 09:57:46;;;;;;;;;;;;;;;11.61;100.00;99198.28;6287822;22;20488;-94
2022/09/03 10:00:42;;;;;;;;;;;;;;;11.67;100.00;99197.09;6291545;22;19994;-93
2022/09/03 10:03:21;;;;;;;;;;;;;;;11.68;100.00;99194.34;6280644;22;19919;-94
2022/09/03 10:09:19;;;;;;;;;;;;;;;11.42;100.00;99191.38;6288628;22;19946;-90
2022/09/03 10:17:07;;;;;;;;;;;;;;;11.63;100.00;99193.72;6101157;23;19925;31
2022/09/03 10:25:27;;;;;;;;;;;;;;;11.79;100.00;99183.97;6257006;22;19923;-93
2022/09/03 10:27:56;;;;;;;;;;;;;;;11.66;100.00;99176.78;6272775;22;19919;-94
2022/09/03 10:33:27;;;;;;;;;;;;;;;11.82;100.00;99173.19;6236027;22;19916;-95
2022/09/03 10:36:02;;;;;;;;;;;;;;;11.74;100.00;99178.09;6271854;22;19920;-92
2022/09/03 10:38:47;;;;;;;;;;;;;;;11.68;100.00;99173.13;6276295;22;19912;-94
2022/09/03 10:41:30;;;;;;;;;;;;;;;11.67;100.00;99162.59;6276060;22;19919;-95
2022/09/03 10:47:03;;;;;;;;;;;;;;;;;;;;;
2022/09/03 10:49:53;;;;;;;;;;;;;;;11.76;100.00;99162.91;6270486;22;19922;-92
2022/09/03 10:52:21;;;;;;;;;;;;;;;11.64;100.00;99166.28;6238236;22;19970;-94
2022/09/03 10:55:06;;;;;;;;;;;;;;;;;;;;;
2022/09/03 11:06:08;;;;;;;;;;;;;;;11.89;100.00;99162.22;6184250;22;19919;-94
2022/09/03 11:14:24;;;;;;;;;;;;;;;11.78;100.00;99153.06;6149726;22;19919;-91
2022/09/03 11:17:03;;;;;;;;;;;;;;;11.86;100.00;99154.44;6219944;22;19921;-95
2022/09/03 11:19:42;;;;;;;;;;;;;;;11.94;100.00;99157.53;6089517;23;19923;-91
2022/09/03 11:22:29;;;;;;;;;;;;;;;;;;;;;
2022/09/03 11:25:26;;;;;;;;;;;;;;;11.67;100.00;99155.47;6186997;22;19926;-91
2022/09/03 11:28:30;;;;;;;;;;;;;;;11.81;100.00;99157.34;6184608;22;19946;-91
2022/09/03 11:31:37;;;;;;;;;;;;;;;;;;;;;
2022/09/03 12:00:26;;;;;;;;;;;;;;;11.93;100.00;99122.13;6271346;22;19957;-92
2022/09/03 12:05:39;;;;;;;;;;;;;;;11.77;100.00;99135.41;6284801;22;20295;-93
2022/09/03 12:08:17;;;;;;;;;;;;;;;;;;;;;
2022/09/03 12:10:58;;;;;;;;;;;;;;;11.98;100.00;99127.19;6132250;23;19937;-92
2022/09/03 12:13:48;;;;;;;;;;;;;;;11.98;100.00;99124.53;6111884;23;20331;-91
2022/09/03 12:16:33;;;;;;;;;;;;;;;11.88;100.00;99124.19;6139822;23;19913;-90
2022/09/03 12:19:31;;;;;;;;;;;;;;;11.82;100.00;99128.06;6213747;22;19935;-91
2022/09/03 12:22:06;;;;;;;;;;;;;;;11.97;100.00;99128.97;6227792;22;19923;-91
2022/09/03 12:24:37;;;;;;;;;;;;;;;11.99;100.00;99139.50;6203104;23;19922;-91
2022/09/03 12:27:12;;;;;;;;;;;;;;;11.93;100.00;99139.88;6134080;22;19915;-93
2022/09/03 12:29:47;;;;;;;;;;;;;;;11.86;100.00;99147.31;6263121;22;20405;-92
2022/09/03 12:32:36;;;;;;;;;;;;;;;12.07;100.00;99145.22;6263606;22;19912;-91
2022/09/03 12:35:24;;;;;;;;;;;;;;;12.01;100.00;99156.19;6264548;22;19911;-91
2022/09/03 12:38:10;;;;;;;;;;;;;;;11.89;100.00;99164.88;6263231;22;20319;-91
2022/09/03 12:40:41;;;;;;;;;;;;;;;11.97;100.00;99170.63;6284798;22;19930;-90
2022/09/03 12:43:14;;;;;;;;;;;;;;;12.15;100.00;99182.78;6258655;23;19995;-90
2022/09/03 12:46:19;;;;;;;;;;;;;;;;;;;;;
2022/09/03 12:49:26;;;;;;;;;;;;;;;11.96;100.00;99208.72;6256182;23;19912;-90
2022/09/03 12:52:06;;;;;;;;;;;;;;;12.06;100.00;99220.53;6164952;22;19918;-91
2022/09/03 12:55:03;;;;;;;;;;;;;;;12.20;100.00;99229.50;6297840;22;19922;-90
2022/09/03 13:00:23;;;;;;;;;;;;;;;12.06;100.00;99251.53;6224726;22;19930;-94
2022/09/03 13:03:01;;;;;;;;;;;;;;;12.07;100.00;99239.97;6280764;22;19926;-94
2022/09/03 13:05:43;;;;;;;;;;;;;;;12.47;100.00;99235.81;6277407;22;19911;-92
2022/09/03 13:08:19;;;;;;;;;;;;;;;12.52;100.00;99239.09;6282348;22;20212;-93
2022/09/03 13:10:56;;;;;;;;;;;;;;;12.34;100.00;99246.31;6276437;22;19912;-91
2022/09/03 13:16:14;;;;;;;;;;;;;;;12.43;100.00;99244.94;6276312;22;19924;-93
2022/09/03 13:18:55;;;;;;;;;;;;;;;12.38;100.00;99241.72;6275460;22;19915;-93
2022/09/03 13:21:27;;;;;;;;;;;;;;;12.29;100.00;99228.97;6274448;22;19990;-91
2022/09/03 13:24:21;;;;;;;;;;;;;;;12.14;100.00;99230.69;6276848;22;19915;-91
2022/09/03 13:26:48;;;;;;;;;;;;;;;12.09;100.00;99236.25;6237258;22;19918;-94
2022/09/03 13:29:23;;;;;;;;;;;;;;;12.31;100.00;99229.72;6278756;22;19934;-93
2022/09/03 13:31:55;;;;;;;;;;;;;;;12.32;100.00;99223.47;6276689;22;20336;-89
2022/09/03 13:34:27;;;;;;;;;;;;;;;12.17;100.00;99222.53;6254185;22;20272;-93
2022/09/03 13:36:59;;;;;;;;;;;;;;;12.12;100.00;99220.16;6280774;22;19931;-95
2022/09/03 13:39:24;;;;;;;;;;;;;;;12.26;100.00;99226.47;6254967;22;19947;-89
2022/09/03 13:41:53;;;;;;;;;;;;;;;12.21;100.00;99224.09;6280113;22;19918;-93
2022/09/03 13:44:31;;;;;;;;;;;;;;;12.10;100.00;99231.81;6250945;22;20273;-93
2022/09/03 13:47:06;;;;;;;;;;;;;;;11.97;100.00;99231.69;6283433;22;19911;-91
2022/09/03 13:52:21;;;;;;;;;;;;;;;12.31;100.00;99232.38;6284449;22;20049;-94
2022/09/03 13:54:51;;;;;;;;;;;;;;;12.22;100.00;99228.47;6284283;22;19950;-92
2022/09/03 13:57:31;;;;;;;;;;;;;;;12.12;100.00;99235.25;6251765;22;19922;-94
2022/09/03 13:59:56;;;;;;;;;;;;;;;12.24;100.00;99226.56;6278942;22;20286;-93
2022/09/03 14:02:26;;;;;;;;;;;;;;;12.32;100.00;99231.44;6281954;22;19919;-92
2022/09/03 14:05:04;;;;;;;;;;;;;;;12.25;100.00;99230.06;6254843;22;19912;-94
2022/09/03 14:07:57;;;;;;;;;;;;;;;12.17;100.00;99230.50;6284406;22;19911;-92
2022/09/03 14:10:26;;;;;;;;;;;;;;;12.16;100.00;99224.34;6288505;22;19915;-93
2022/09/03 14:13:07;;;;;;;;;;;;;;;12.28;100.00;99228.06;6285678;22;19912;-93
2022/09/03 14:15:58;;;;;;;;;;;;;;;12.27;100.00;99229.03;6290402;22;19953;-96
2022/09/03 14:18:34;;;;;;;;;;;;;;;12.16;100.00;99232.31;6283814;22;20002;-91
2022/09/03 14:21:10;;;;;;;;;;;;;;;12.05;100.00;99229.44;6286296;22;19911;-93
2022/09/03 14:23:42;;;;;;;;;;;;;;;12.04;100.00;99232.19;6289979;22;19916;-91
2022/09/03 14:26:15;;;;;;;;;;;;;;;12.26;100.00;99237.09;6289577;22;20216;-93
2022/09/03 14:28:49;;;;;;;;;;;;;;;12.18;100.00;99235.72;6275967;22;20312;-92
2022/09/03 14:31:39;;;;;;;;;;;;;;;11.99;100.00;99235.09;6249723;22;19922;-94
2022/09/03 14:34:34;;;;;;;;;;;;;;;11.97;100.00;99235.19;6252815;22;19920;-92
2022/09/03 14:37:40;;;;;;;;;;;;;;;12.09;100.00;99241.56;6186509;23;20371;-90
2022/09/03 14:40:08;;;;;;;;;;;;;;;12.11;100.00;99244.13;6187996;23;19939;-94
2022/09/03 14:42:52;;;;;;;;;;;;;;;12.20;100.00;99242.78;6224972;22;19920;-92
2022/09/03 14:45:24;;;;;;;;;;;;;;;12.12;100.00;99237.91;6264635;23;19915;-91
2022/09/03 14:47:57;;;;;;;;;;;;;;;11.96;100.00;99238.78;6239251;23;19899;-95
2022/09/03 14:53:54;;;;;;;;;;;;;;;12.16;100.00;99237.63;6248543;23;19919;-92
2022/09/03 14:56:33;;;;;;;;;;;;;;;12.14;100.00;99241.31;6265093;22;19912;-92
2022/09/03 14:59:17;;;;;;;;;;;;;;;12.16;100.00;99237.63;6177612;22;19932;-92
2022/09/03 15:02:06;;;;;;;;;;;;;;;12.12;100.00;99246.72;6113973;23;19936;-89
2022/09/03 15:04:50;;;;;;;;;;;;;;;12.07;100.00;99237.31;6134037;23;20225;-93
2022/09/03 15:07:26;;;;;;;;;;;;;;;11.98;100.00;99242.22;6096314;23;20245;-95
2022/09/03 15:09:59;;;;;;;;;;;;;;;12.09;100.00;99249.53;6090849;23;19925;-92
2022/09/03 15:12:32;;;;;;;;;;;;;;;12.20;100.00;99246.28;6113467;23;19925;-92
2022/09/03 15:15:00;;;;;;;;;;;;;;;12.09;100.00;99246.88;6066501;23;19920;-93
2022/09/03 15:17:28;;;;;;;;;;;;;;;11.96;100.00;99238.78;6092200;23;19965;-94
2022/09/03 15:19:53;;;;;;;;;;;;;;;12.11;100.00;99233.53;6116609;23;19913;-92
2022/09/03 15:22:41;;;;;;;;;;;;;;;12.17;100.00;99243.78;6115129;23;19952;-95
2022/09/03 15:25:35;;;;;;;;;;;;;;;12.06;100.00;99235.59;6066781;23;20273;-94
2022/09/03 15:28:00;;;;;;;;;;;;;;;12.02;100.00;99240.22;6115308;23;20339;-92
2022/09/03 15:30:49;;;;;;;;;;;;;;;12.04;100.00;99243.66;6091881;23;19914;-91
2022/09/03 15:33:17;;;;;;;;;;;;;;;12.14;100.00;99250.16;6074904;23;20385;-91
2022/09/03 15:35:51;;;;;;;;;;;;;;;12.20;100.00;99248.09;6091722;23;20055;-91
2022/09/03 15:38:56;;;;;;;;;;;;;;;12.07;100.00;99251.44;6115411;23;19920;-93
2022/09/03 15:41:23;;;;;;;;;;;;;;;11.99;100.00;99249.22;6091263;23;19918;-96
2022/09/03 15:43:50;;;;;;;;;;;;;;;12.03;100.00;99249.03;6097792;23;19918;-92
2022/09/03 15:46:41;;;;;;;;;;;;;;;12.32;100.00;99256.19;6100352;23;20293;-93
2022/09/03 15:49:17;;;;;;;;;;;;;;;12.29;100.00;99261.69;6093070;23;19920;-92
2022/09/03 15:52:17;;;;;;;;;;;;;;;12.11;100.00;99260.94;6095579;23;19918;-96
2022/09/03 16:00:18;;;;;;;;;;;;;;;12.05;100.00;99261.31;6156554;22;20382;-94
2022/09/03 16:02:48;;;;;;;;;;;;;;;12.23;100.00;99253.22;6229464;22;19929;-91
2022/09/03 16:05:17;;;;;;;;;;;;;;;12.11;100.00;99258.28;6190150;23;19922;-94
2022/09/03 16:07:55;;;;;;;;;;;;;;;12.04;100.00;99261.38;6189913;23;20013;-94
2022/09/03 16:10:21;;;;;;;;;;;;;;;11.97;100.00;99256.41;6163263;23;19929;-94
2022/09/03 16:13:03;;;;;;;;;;;;;;;12.23;100.00;99259.38;6063551;23;19953;-92
2022/09/03 16:15:48;;;;;;;;;;;;;;;12.17;100.00;99265.03;6190735;23;19996;-93
2022/09/03 16:18:23;;;;;;;;;;;;;;;12.17;100.00;99257.06;6075145;23;20393;-92
2022/09/03 16:20:54;;;;;;;;;;;;;;;12.08;100.00;99261.13;6064865;23;19913;-93
2022/09/03 16:23:37;;;;;;;;;;;;;;;12.32;100.00;99248.22;6064874;23;19922;-94
2022/09/03 16:26:17;;;;;;;;;;;;;;;12.28;100.00;99256.44;6189728;23;19921;-93
2022/09/03 16:28:47;;;;;;;;;;;;;;;12.22;100.00;99257.69;6064787;23;19914;-91
2022/09/03 16:31:33;;;;;;;;;;;;;;;12.20;100.00;99256.06;6165318;23;19965;-94
2022/09/03 16:34:25;;;;;;;;;;;;;;;12.42;100.00;99240.56;6190996;23;19913;-92
2022/09/03 16:37:18;;;;;;;;;;;;;;;12.38;100.00;99240.81;6131561;23;19913;-94
2022/09/03 16:40:01;;;;;;;;;;;;;;;12.26;100.00;99237.09;6165588;23;20227;-92
2022/09/03 16:42:38;;;;;;;;;;;;;;;12.14;100.00;99234.22;6188942;23;19917;-92
2022/09/03 16:45:23;;;;;;;;;;;;;;;12.34;100.00;99230.38;6165227;23;19913;-95
2022/09/03 16:47:57;;;;;;;;;;;;;;;12.42;100.00;99234.41;6065477;23;19913;-95
2022/09/03 16:50:39;;;;;;;;;;;;;;;12.26;100.00;99237.09;6193323;23;19984;-92
2022/09/03 16:53:27;;;;;;;;;;;;;;;12.21;100.00;99248.00;6189823;23;19910;-92
2022/09/03 16:56:11;;;;;;;;;;;;;;;12.34;100.00;99245.47;6066674;23;19917;-89
2022/09/03 16:58:39;;;;;;;;;;;;;;;12.40;100.00;99253.09;6190252;23;19913;-92
2022/09/03 17:01:04;;;;;;;;;;;;;;;12.30;100.00;99249.25;6190260;23;19913;-93
2022/09/03 17:03:36;;;;;;;;;;;;;;;12.30;100.00;99250.13;6190528;23;19974;-93
2022/09/03 17:06:22;;;;;;;;;;;;;;;12.43;100.00;99255.56;6064969;23;19913;-91
2022/09/03 17:09:02;;;;;;;;;;;;;;;12.31;100.00;99250.97;6189858;23;20296;-94
2022/09/03 17:11:40;;;;;;;;;;;;;;;12.32;100.00;99242.06;6063917;23;19914;-93
2022/09/03 17:14:18;;;;;;;;;;;;;;;12.42;100.00;99245.03;6064913;23;19914;-91
2022/09/03 17:16:46;;;;;;;;;;;;;;;12.50;100.00;99254.25;6170067;23;20239;-95
2022/09/03 17:19:30;;;;;;;;;;;;;;;12.38;100.00;99256.78;6192380;23;20310;-93
2022/09/03 17:22:17;;;;;;;;;;;;;;;12.37;100.00;99257.72;6065068;23;19972;-88
2022/09/03 17:24:52;;;;;;;;;;;;;;;12.49;100.00;99260.53;6189765;23;19913;-93
2022/09/03 17:27:37;;;;;;;;;;;;;;;12.54;100.00;99260.25;6188112;23;19914;-90
2022/09/03 17:30:05;;;;;;;;;;;;;;;12.32;100.00;99271.28;6189195;23;20277;-90
2022/09/03 17:35:16;;;;;;;;;;;;;;;12.17;100.00;99265.03;6246943;23;19927;-90
2022/09/03 17:37:42;;;;;;;;;;;;;;;12.23;100.00;99266.50;6218840;23;19992;-89
2022/09/03 17:40:17;;;;;;;;;;;;;;;12.04;100.00;99264.03;6246345;23;19935;-94
2022/09/03 17:42:47;;;;;;;;;;;;;;;11.95;100.00;99271.59;6245493;23;19915;-88
2022/09/03 17:45:17;;;;;;;;;;;;;;;12.10;100.00;99266.34;6246933;23;19923;-93
2022/09/03 17:47:49;;;;;;;;;;;;;;;11.98;100.00;99260.81;6245835;23;19919;-89
2022/09/03 17:50:24;;;;;;;;;;;;;;;11.88;100.00;99270.19;6243850;23;19918;-95
2022/09/03 17:56:33;;;;;;;;;;;;;;;11.72;100.00;99274.66;6122572;23;19952;-88
2022/09/03 17:59:13;;;;;;;;;;;;;;;11.93;100.00;99273.47;6123960;23;19920;-89
2022/09/03 18:01:47;;;;;;;;;;;;;;;11.84;100.00;99275.75;6122477;23;19966;-88
2022/09/03 18:04:31;;;;;;;;;;;;;;;11.72;100.00;99279.94;6181099;23;19915;-88
2022/09/03 18:07:05;;;;;;;;;;;;;;;11.72;100.00;99279.94;6243765;23;20323;-91
2022/09/03 18:09:46;;;;;;;;;;;;;;;11.97;100.00;99292.75;6218457;23;20295;-92
2022/09/03 18:12:48;;;;;;;;;;;;;;;11.90;100.00;99296.63;6218486;23;20143;-95
2022/09/03 18:15:55;;;;;;;;;;;;;;;11.74;100.00;99299.28;6245895;23;19912;-88
2022/09/03 18:18:28;;;;;;;;;;;;;;;11.72;100.00;99296.72;6157959;23;19987;-88
2022/09/03 20:13:12;;;;;;;;;;;;;;;11.73;100.00;99401.09;6277078;22;20470;-92
2022/09/03 20:15:56;;;;;;;;;;;;;;;11.67;100.00;99404.09;6275322;22;19911;-88
2022/09/03 20:18:47;;;;;;;;;;;;;;;11.77;100.00;99402.63;6275961;22;19994;-88
2022/09/03 20:21:47;;;;;;;;;;;;;;;11.84;100.00;99401.38;6250409;22;19915;-92
2022/09/03 20:24:27;;;;;;;;;;;;;;;11.82;100.00;99397.94;6239567;22;19911;-90
2022/09/03 20:26:55;;;;;;;;;;;;;;;11.74;100.00;99405.47;6275299;22;19922;-90
2022/09/03 20:29:26;;;;;;;;;;;;;;;11.62;100.00;99404.31;6281116;22;19919;-93
2022/09/03 20:32:21;;;;;;;;;;;;;;;11.84;100.00;99408.47;6277877;22;19915;-91
2022/09/03 20:34:57;;;;;;;;;;;;;;;11.90;100.00;99405.47;6257189;22;19911;-89
2022/09/03 20:37:27;;;;;;;;;;;;;;;11.82;100.00;99414.75;6278536;22;19912;-89
2022/09/03 20:39:58;;;;;;;;;;;;;;;11.69;100.00;99418.13;6278004;22;19915;-93
2022/09/03 20:42:26;;;;;;;;;;;;;;;11.87;100.00;99422.47;6276485;22;19915;-91
2022/09/03 20:44:55;;;;;;;;;;;;;;;11.89;100.00;99422.38;6275842;22;19919;-89
2022/09/03 20:47:46;;;;;;;;;;;;;;;11.72;100.00;99424.13;6277238;22;19911;-94
2022/09/03 20:50:42;;;;;;;;;;;;;;;11.68;100.00;99427.88;6278790;22;19911;-91
2022/09/03 20:56:21;;;;;;;;;;;;;;;11.90;100.00;99426.72;6271944;22;19911;-94
2022/09/03 21:01:32;;;;;;;;;;;;;;;11.84;100.00;99432.34;6260405;22;20349;-87
2022/09/03 21:07:37;;;;;;;;;;;;;;;11.88;100.00;99428.63;6152626;23;19924;-92
2022/09/03 21:10:30;;;;;;;;;;;;;;;;;;;;;
2022/09/03 21:13:19;;;;;;;;;;;;;;;12.02;100.00;99450.00;6155462;23;19968;-91
2022/09/03 21:15:53;;;;;;;;;;;;;;;11.98;100.00;99443.13;6227009;22;20331;-90
2022/09/03 21:18:29;;;;;;;;;;;;;;;11.86;100.00;99447.28;6279420;22;19974;-90
2022/09/03 21:21:09;;;;;;;;;;;;;;;12.13;100.00;99439.66;6278439;22;19911;-90
2022/09/03 21:23:39;;;;;;;;;;;;;;;12.06;100.00;99438.28;6278880;22;19937;-88
2022/09/03 21:26:14;;;;;;;;;;;;;;;11.98;100.00;99440.47;6277305;22;19938;-91
2022/09/03 21:28:54;;;;;;;;;;;;;;;11.92;100.00;99446.13;6279028;22;19916;-90
2022/09/03 21:34:25;;;;;;;;;;;;;;;12.16;100.00;99443.94;6264820;22;20263;-87
2022/09/03 21:36:50;;;;;;;;;;;;;;;12.04;100.00;99442.78;6278547;22;20005;-90
2022/09/03 21:39:34;;;;;;;;;;;;;;;11.97;100.00;99444.09;6276168;22;20290;-89
2022/09/03 21:42:08;;;;;;;;;;;;;;;12.18;100.00;99450.88;6276475;22;19918;-92
2022/09/03 21:44:39;;;;;;;;;;;;;;;12.17;100.00;99456.25;6278360;22;19946;-89
2022/09/03 21:47:09;;;;;;;;;;;;;;;12.04;100.00;99448.09;6278885;22;20275;-92
2022/09/03 21:49:39;;;;;;;;;;;;;;;12.05;100.00;99456.94;6250617;22;19908;-92
2022/09/03 21:52:13;;;;;;;;;;;;;;;12.26;100.00;99457.56;6276957;22;19919;-87
2022/09/03 21:54:38;;;;;;;;;;;;;;;12.12;100.00;99464.47;6275340;22;19911;-89
2022/09/03 21:57:22;;;;;;;;;;;;;;;12.01;100.00;99460.69;6276581;22;20316;-87
2022/09/03 22:00:08;;;;;;;;;;;;;;;12.04;100.00;99455.22;6276404;22;20002;-89
2022/09/03 22:03:01;;;;;;;;;;;;;;;12.26;100.00;99452.25;6276747;22;20222;-90
2022/09/03 22:05:32;;;;;;;;;;;;;;;12.24;100.00;99459.44;6277989;22;19915;-93
2022/09/03 22:08:20;;;;;;;;;;;;;;;12.16;100.00;99451.91;6277752;22;20009;-85
2022/09/03 22:11:08;;;;;;;;;;;;;;;12.10;100.00;99460.22;6268525;22;19911;-91
2022/09/03 22:13:57;;;;;;;;;;;;;;;12.18;100.00;99458.00;6246932;22;19958;-91
2022/09/03 22:16:30;;;;;;;;;;;;;;;12.35;100.00;99459.72;6276766;22;19911;-92
2022/09/03 22:18:55;;;;;;;;;;;;;;;12.25;100.00;99455.84;6276328;22;19946;-90
2022/09/03 22:21:22;;;;;;;;;;;;;;;12.13;100.00;99468.00;6250396;22;19926;-85
2022/09/03 22:23:54;;;;;;;;;;;;;;;12.30;100.00;99467.06;6276086;22;19939;-89